sensor_id;sensor_type;location;lat;lon;timestamp;P1;durP1;ratioP1;P2;durP2;ratioP2
72125;SDS011;59999;51.676;22.650;2023-05-08T00:02:06;15.13;;;5.65;;
72125;SDS011;59999;51.676;22.650;2023-05-08T00:04:33;11.20;;;3.80;;
72125;SDS011;59999;51.676;22.650;2023-05-08T00:06:58;14.32;;;5.78;;
72125;SDS011;59999;51.676;22.650;2023-05-08T00:09:24;15.13;;;5.25;;
72125;SDS011;59999;51.676;22.650;2023-05-08T00:11:50;11.33;;;4.63;;
72125;SDS011;59999;51.676;22.650;2023-05-08T00:14:16;10.68;;;4.40;;
72125;SDS011;59999;51.676;22.650;2023-05-08T00:16:42;10.75;;;4.65;;
72125;SDS011;59999;51.676;22.650;2023-05-08T00:19:08;11.57;;;4.82;;
72125;SDS011;59999;51.676;22.650;2023-05-08T00:21:34;11.37;;;4.57;;
72125;SDS011;59999;51.676;22.650;2023-05-08T00:24:00;16.17;;;5.20;;
72125;SDS011;59999;51.676;22.650;2023-05-08T00:26:26;10.87;;;4.33;;
72125;SDS011;59999;51.676;22.650;2023-05-08T00:28:52;11.77;;;4.70;;
72125;SDS011;59999;51.676;22.650;2023-05-08T00:31:18;12.90;;;4.95;;
72125;SDS011;59999;51.676;22.650;2023-05-08T00:33:44;13.50;;;5.67;;
72125;SDS011;59999;51.676;22.650;2023-05-08T00:36:10;12.70;;;4.88;;
72125;SDS011;59999;51.676;22.650;2023-05-08T00:38:37;14.75;;;5.85;;
72125;SDS011;59999;51.676;22.650;2023-05-08T00:41:02;12.40;;;5.03;;
72125;SDS011;59999;51.676;22.650;2023-05-08T00:43:29;13.85;;;5.30;;
72125;SDS011;59999;51.676;22.650;2023-05-08T00:45:55;16.45;;;5.70;;
72125;SDS011;59999;51.676;22.650;2023-05-08T00:48:22;14.27;;;5.47;;
72125;SDS011;59999;51.676;22.650;2023-05-08T00:50:49;14.57;;;5.57;;
72125;SDS011;59999;51.676;22.650;2023-05-08T00:53:18;16.13;;;5.60;;
72125;SDS011;59999;51.676;22.650;2023-05-08T00:55:45;15.98;;;5.97;;
72125;SDS011;59999;51.676;22.650;2023-05-08T00:58:12;14.73;;;5.30;;
72125;SDS011;59999;51.676;22.650;2023-05-08T01:00:40;14.45;;;5.30;;
72125;SDS011;59999;51.676;22.650;2023-05-08T01:03:08;13.60;;;4.83;;
72125;SDS011;59999;51.676;22.650;2023-05-08T01:05:35;13.13;;;5.20;;
72125;SDS011;59999;51.676;22.650;2023-05-08T01:08:01;14.07;;;5.00;;
72125;SDS011;59999;51.676;22.650;2023-05-08T01:10:30;11.07;;;4.82;;
72125;SDS011;59999;51.676;22.650;2023-05-08T01:13:15;12.27;;;5.20;;
72125;SDS011;59999;51.676;22.650;2023-05-08T01:15:56;13.48;;;4.60;;
72125;SDS011;59999;51.676;22.650;2023-05-08T01:18:40;13.80;;;5.18;;
72125;SDS011;59999;51.676;22.650;2023-05-08T01:21:23;11.07;;;4.57;;
72125;SDS011;59999;51.676;22.650;2023-05-08T01:30:11;10.63;;;4.05;;
72125;SDS011;59999;51.676;22.650;2023-05-08T01:32:49;15.30;;;4.53;;
72125;SDS011;59999;51.676;22.650;2023-05-08T01:38:14;13.35;;;4.50;;
72125;SDS011;59999;51.676;22.650;2023-05-08T01:40:51;11.93;;;4.17;;
72125;SDS011;59999;51.676;22.650;2023-05-08T01:43:30;11.18;;;4.53;;
72125;SDS011;59999;51.676;22.650;2023-05-08T01:46:04;10.30;;;4.18;;
72125;SDS011;59999;51.676;22.650;2023-05-08T01:48:34;12.60;;;4.85;;
72125;SDS011;59999;51.676;22.650;2023-05-08T01:51:10;13.95;;;5.43;;
72125;SDS011;59999;51.676;22.650;2023-05-08T01:53:42;10.30;;;4.07;;
72125;SDS011;59999;51.676;22.650;2023-05-08T01:56:13;15.70;;;4.82;;
72125;SDS011;59999;51.676;22.650;2023-05-08T01:58:41;11.95;;;4.57;;
72125;SDS011;59999;51.676;22.650;2023-05-08T02:01:09;10.50;;;4.00;;
72125;SDS011;59999;51.676;22.650;2023-05-08T02:03:38;14.23;;;4.72;;
72125;SDS011;59999;51.676;22.650;2023-05-08T02:06:08;14.47;;;4.60;;
72125;SDS011;59999;51.676;22.650;2023-05-08T02:08:35;11.45;;;4.20;;
72125;SDS011;59999;51.676;22.650;2023-05-08T02:11:02;12.00;;;4.88;;
72125;SDS011;59999;51.676;22.650;2023-05-08T02:13:29;11.70;;;4.47;;
72125;SDS011;59999;51.676;22.650;2023-05-08T02:15:57;10.27;;;4.45;;
72125;SDS011;59999;51.676;22.650;2023-05-08T02:18:25;11.63;;;4.70;;
72125;SDS011;59999;51.676;22.650;2023-05-08T02:20:53;13.15;;;5.13;;
72125;SDS011;59999;51.676;22.650;2023-05-08T02:23:21;12.13;;;5.00;;
72125;SDS011;59999;51.676;22.650;2023-05-08T02:25:49;13.38;;;5.15;;
72125;SDS011;59999;51.676;22.650;2023-05-08T02:28:16;13.43;;;4.63;;
72125;SDS011;59999;51.676;22.650;2023-05-08T02:30:43;12.60;;;4.57;;
72125;SDS011;59999;51.676;22.650;2023-05-08T02:33:12;12.63;;;4.65;;
72125;SDS011;59999;51.676;22.650;2023-05-08T02:35:40;11.55;;;4.63;;
72125;SDS011;59999;51.676;22.650;2023-05-08T02:38:08;12.85;;;5.00;;
72125;SDS011;59999;51.676;22.650;2023-05-08T02:40:36;10.52;;;4.15;;
72125;SDS011;59999;51.676;22.650;2023-05-08T02:43:06;11.90;;;4.50;;
72125;SDS011;59999;51.676;22.650;2023-05-08T02:45:35;13.85;;;4.97;;
72125;SDS011;59999;51.676;22.650;2023-05-08T02:48:08;11.55;;;4.88;;
72125;SDS011;59999;51.676;22.650;2023-05-08T02:50:59;11.90;;;4.60;;
72125;SDS011;59999;51.676;22.650;2023-05-08T02:53:34;12.10;;;5.10;;
72125;SDS011;59999;51.676;22.650;2023-05-08T02:56:05;13.60;;;4.93;;
72125;SDS011;59999;51.676;22.650;2023-05-08T02:58:44;12.48;;;4.95;;
72125;SDS011;59999;51.676;22.650;2023-05-08T03:01:24;10.98;;;4.10;;
72125;SDS011;59999;51.676;22.650;2023-05-08T03:04:10;12.02;;;4.15;;
72125;SDS011;59999;51.676;22.650;2023-05-08T03:06:43;10.60;;;4.18;;
72125;SDS011;59999;51.676;22.650;2023-05-08T03:09:18;12.50;;;4.87;;
72125;SDS011;59999;51.676;22.650;2023-05-08T03:11:49;11.88;;;4.32;;
72125;SDS011;59999;51.676;22.650;2023-05-08T03:14:23;12.18;;;4.80;;
72125;SDS011;59999;51.676;22.650;2023-05-08T03:16:53;12.20;;;5.00;;
72125;SDS011;59999;51.676;22.650;2023-05-08T03:19:23;13.43;;;5.13;;
72125;SDS011;59999;51.676;22.650;2023-05-08T03:21:52;16.13;;;5.33;;
72125;SDS011;59999;51.676;22.650;2023-05-08T03:24:21;12.95;;;5.13;;
72125;SDS011;59999;51.676;22.650;2023-05-08T03:26:48;14.85;;;5.65;;
72125;SDS011;59999;51.676;22.650;2023-05-08T03:29:14;12.15;;;5.10;;
72125;SDS011;59999;51.676;22.650;2023-05-08T03:31:43;12.67;;;5.70;;
72125;SDS011;59999;51.676;22.650;2023-05-08T03:34:10;13.88;;;5.53;;
72125;SDS011;59999;51.676;22.650;2023-05-08T03:36:38;14.93;;;5.45;;
72125;SDS011;59999;51.676;22.650;2023-05-08T03:39:04;14.30;;;5.40;;
72125;SDS011;59999;51.676;22.650;2023-05-08T03:41:32;15.20;;;5.78;;
72125;SDS011;59999;51.676;22.650;2023-05-08T03:43:58;15.83;;;5.87;;
72125;SDS011;59999;51.676;22.650;2023-05-08T03:46:26;15.52;;;6.10;;
72125;SDS011;59999;51.676;22.650;2023-05-08T03:48:52;21.42;;;6.32;;
72125;SDS011;59999;51.676;22.650;2023-05-08T03:51:19;16.55;;;6.47;;
72125;SDS011;59999;51.676;22.650;2023-05-08T03:53:46;18.77;;;6.90;;
72125;SDS011;59999;51.676;22.650;2023-05-08T03:56:12;17.03;;;7.20;;
72125;SDS011;59999;51.676;22.650;2023-05-08T04:01:21;19.25;;;8.05;;
72125;SDS011;59999;51.676;22.650;2023-05-08T04:04:05;17.85;;;7.07;;
72125;SDS011;59999;51.676;22.650;2023-05-08T04:06:39;22.42;;;7.90;;
72125;SDS011;59999;51.676;22.650;2023-05-08T04:09:16;18.83;;;7.67;;
72125;SDS011;59999;51.676;22.650;2023-05-08T04:11:55;18.20;;;7.50;;
72125;SDS011;59999;51.676;22.650;2023-05-08T04:15:12;18.55;;;7.25;;
72125;SDS011;59999;51.676;22.650;2023-05-08T04:17:22;17.00;;;6.60;;
72125;SDS011;59999;51.676;22.650;2023-05-08T04:20:00;20.20;;;7.38;;
72125;SDS011;59999;51.676;22.650;2023-05-08T04:22:29;18.80;;;7.57;;
72125;SDS011;59999;51.676;22.650;2023-05-08T04:24:58;18.50;;;7.53;;
72125;SDS011;59999;51.676;22.650;2023-05-08T04:27:29;16.88;;;7.72;;
72125;SDS011;59999;51.676;22.650;2023-05-08T04:29:55;19.45;;;8.60;;
72125;SDS011;59999;51.676;22.650;2023-05-08T04:32:22;19.25;;;8.13;;
72125;SDS011;59999;51.676;22.650;2023-05-08T04:34:48;19.80;;;8.20;;
72125;SDS011;59999;51.676;22.650;2023-05-08T04:37:24;18.73;;;7.88;;
72125;SDS011;59999;51.676;22.650;2023-05-08T04:39:51;16.95;;;7.32;;
72125;SDS011;59999;51.676;22.650;2023-05-08T04:42:18;15.80;;;6.35;;
72125;SDS011;59999;51.676;22.650;2023-05-08T04:44:44;16.15;;;7.45;;
72125;SDS011;59999;51.676;22.650;2023-05-08T04:47:10;15.10;;;6.93;;
72125;SDS011;59999;51.676;22.650;2023-05-08T04:49:36;15.07;;;6.75;;
72125;SDS011;59999;51.676;22.650;2023-05-08T04:52:02;17.42;;;6.60;;
72125;SDS011;59999;51.676;22.650;2023-05-08T04:54:28;16.53;;;7.20;;
72125;SDS011;59999;51.676;22.650;2023-05-08T04:56:54;13.55;;;5.88;;
72125;SDS011;59999;51.676;22.650;2023-05-08T04:59:20;13.20;;;6.35;;
72125;SDS011;59999;51.676;22.650;2023-05-08T05:01:46;13.52;;;6.10;;
72125;SDS011;59999;51.676;22.650;2023-05-08T05:04:12;14.50;;;5.77;;
72125;SDS011;59999;51.676;22.650;2023-05-08T05:06:38;14.80;;;6.00;;
72125;SDS011;59999;51.676;22.650;2023-05-08T05:09:05;14.23;;;5.90;;
72125;SDS011;59999;51.676;22.650;2023-05-08T05:11:31;12.80;;;5.65;;
72125;SDS011;59999;51.676;22.650;2023-05-08T05:13:57;14.77;;;5.93;;
72125;SDS011;59999;51.676;22.650;2023-05-08T05:16:23;10.32;;;4.70;;
72125;SDS011;59999;51.676;22.650;2023-05-08T05:18:49;12.13;;;5.15;;
72125;SDS011;59999;51.676;22.650;2023-05-08T05:21:15;10.40;;;4.50;;
72125;SDS011;59999;51.676;22.650;2023-05-08T05:23:41;10.13;;;4.27;;
72125;SDS011;59999;51.676;22.650;2023-05-08T05:26:07;8.90;;;4.20;;
72125;SDS011;59999;51.676;22.650;2023-05-08T05:28:33;10.55;;;3.90;;
72125;SDS011;59999;51.676;22.650;2023-05-08T05:30:59;11.23;;;4.93;;
72125;SDS011;59999;51.676;22.650;2023-05-08T05:33:25;15.00;;;4.73;;
72125;SDS011;59999;51.676;22.650;2023-05-08T05:35:51;9.77;;;4.32;;
72125;SDS011;59999;51.676;22.650;2023-05-08T05:38:17;11.82;;;4.88;;
72125;SDS011;59999;51.676;22.650;2023-05-08T05:40:43;10.83;;;4.47;;
72125;SDS011;59999;51.676;22.650;2023-05-08T05:43:09;11.13;;;4.60;;
72125;SDS011;59999;51.676;22.650;2023-05-08T05:45:35;10.32;;;4.45;;
72125;SDS011;59999;51.676;22.650;2023-05-08T05:48:01;12.50;;;4.95;;
72125;SDS011;59999;51.676;22.650;2023-05-08T05:50:27;9.05;;;3.85;;
72125;SDS011;59999;51.676;22.650;2023-05-08T05:52:53;8.55;;;3.90;;
72125;SDS011;59999;51.676;22.650;2023-05-08T05:55:20;8.20;;;3.78;;
72125;SDS011;59999;51.676;22.650;2023-05-08T05:57:46;8.23;;;3.03;;
72125;SDS011;59999;51.676;22.650;2023-05-08T06:00:13;8.93;;;3.65;;
72125;SDS011;59999;51.676;22.650;2023-05-08T06:02:39;8.27;;;3.00;;
72125;SDS011;59999;51.676;22.650;2023-05-08T06:05:08;8.05;;;2.88;;
72125;SDS011;59999;51.676;22.650;2023-05-08T06:07:34;8.98;;;3.00;;
72125;SDS011;59999;51.676;22.650;2023-05-08T06:10:00;8.83;;;3.07;;
72125;SDS011;59999;51.676;22.650;2023-05-08T06:12:26;7.15;;;2.60;;
72125;SDS011;59999;51.676;22.650;2023-05-08T06:14:53;7.05;;;2.85;;
72125;SDS011;59999;51.676;22.650;2023-05-08T06:17:19;6.63;;;2.67;;
72125;SDS011;59999;51.676;22.650;2023-05-08T06:19:45;6.97;;;2.90;;
72125;SDS011;59999;51.676;22.650;2023-05-08T06:22:18;8.37;;;3.17;;
72125;SDS011;59999;51.676;22.650;2023-05-08T06:24:48;6.90;;;2.50;;
72125;SDS011;59999;51.676;22.650;2023-05-08T06:27:14;6.15;;;2.42;;
72125;SDS011;59999;51.676;22.650;2023-05-08T06:29:40;7.18;;;2.00;;
72125;SDS011;59999;51.676;22.650;2023-05-08T06:32:06;7.63;;;2.20;;
72125;SDS011;59999;51.676;22.650;2023-05-08T06:34:32;6.90;;;2.25;;
72125;SDS011;59999;51.676;22.650;2023-05-08T06:36:58;7.65;;;2.63;;
72125;SDS011;59999;51.676;22.650;2023-05-08T06:39:24;5.93;;;2.10;;
72125;SDS011;59999;51.676;22.650;2023-05-08T06:41:50;6.10;;;2.13;;
72125;SDS011;59999;51.676;22.650;2023-05-08T06:44:16;4.85;;;1.63;;
72125;SDS011;59999;51.676;22.650;2023-05-08T06:46:42;7.10;;;1.83;;
72125;SDS011;59999;51.676;22.650;2023-05-08T06:49:08;5.10;;;1.80;;
72125;SDS011;59999;51.676;22.650;2023-05-08T06:51:34;5.25;;;1.95;;
72125;SDS011;59999;51.676;22.650;2023-05-08T06:54:00;5.25;;;1.85;;
72125;SDS011;59999;51.676;22.650;2023-05-08T06:56:26;5.60;;;1.45;;
72125;SDS011;59999;51.676;22.650;2023-05-08T06:58:52;5.60;;;1.80;;
72125;SDS011;59999;51.676;22.650;2023-05-08T07:01:18;6.78;;;1.65;;
72125;SDS011;59999;51.676;22.650;2023-05-08T07:03:44;5.85;;;1.58;;
72125;SDS011;59999;51.676;22.650;2023-05-08T07:06:10;6.03;;;2.00;;
72125;SDS011;59999;51.676;22.650;2023-05-08T07:08:36;7.57;;;2.22;;
72125;SDS011;59999;51.676;22.650;2023-05-08T07:11:02;6.20;;;1.60;;
72125;SDS011;59999;51.676;22.650;2023-05-08T07:13:28;7.28;;;1.63;;
72125;SDS011;59999;51.676;22.650;2023-05-08T07:15:54;5.13;;;1.70;;
72125;SDS011;59999;51.676;22.650;2023-05-08T07:18:21;5.80;;;1.70;;
72125;SDS011;59999;51.676;22.650;2023-05-08T07:20:46;5.43;;;1.75;;
72125;SDS011;59999;51.676;22.650;2023-05-08T07:23:12;7.40;;;2.10;;
72125;SDS011;59999;51.676;22.650;2023-05-08T07:25:38;6.13;;;1.80;;
72125;SDS011;59999;51.676;22.650;2023-05-08T07:28:04;4.35;;;1.40;;
72125;SDS011;59999;51.676;22.650;2023-05-08T07:30:30;5.22;;;1.92;;
72125;SDS011;59999;51.676;22.650;2023-05-08T07:32:56;4.10;;;1.30;;
72125;SDS011;59999;51.676;22.650;2023-05-08T07:35:22;4.73;;;1.50;;
72125;SDS011;59999;51.676;22.650;2023-05-08T07:37:48;4.38;;;1.60;;
72125;SDS011;59999;51.676;22.650;2023-05-08T07:40:14;6.60;;;1.70;;
72125;SDS011;59999;51.676;22.650;2023-05-08T07:42:41;5.03;;;1.60;;
72125;SDS011;59999;51.676;22.650;2023-05-08T07:45:08;5.72;;;1.98;;
72125;SDS011;59999;51.676;22.650;2023-05-08T07:47:36;5.75;;;1.70;;
72125;SDS011;59999;51.676;22.650;2023-05-08T07:50:23;5.07;;;1.55;;
72125;SDS011;59999;51.676;22.650;2023-05-08T07:52:51;5.50;;;1.45;;
72125;SDS011;59999;51.676;22.650;2023-05-08T07:55:17;4.77;;;1.73;;
72125;SDS011;59999;51.676;22.650;2023-05-08T07:57:44;5.10;;;1.60;;
72125;SDS011;59999;51.676;22.650;2023-05-08T08:00:11;6.25;;;1.70;;
72125;SDS011;59999;51.676;22.650;2023-05-08T08:02:39;7.22;;;1.70;;
72125;SDS011;59999;51.676;22.650;2023-05-08T08:05:06;6.13;;;2.33;;
72125;SDS011;59999;51.676;22.650;2023-05-08T08:07:33;4.63;;;1.80;;
72125;SDS011;59999;51.676;22.650;2023-05-08T08:09:59;4.88;;;1.77;;
72125;SDS011;59999;51.676;22.650;2023-05-08T08:12:26;6.82;;;2.10;;
72125;SDS011;59999;51.676;22.650;2023-05-08T08:14:52;5.05;;;1.75;;
72125;SDS011;59999;51.676;22.650;2023-05-08T08:17:18;4.83;;;1.50;;
72125;SDS011;59999;51.676;22.650;2023-05-08T08:19:44;5.65;;;1.77;;
72125;SDS011;59999;51.676;22.650;2023-05-08T08:22:10;6.78;;;2.00;;
72125;SDS011;59999;51.676;22.650;2023-05-08T08:24:36;5.17;;;1.93;;
72125;SDS011;59999;51.676;22.650;2023-05-08T08:27:02;7.40;;;1.80;;
72125;SDS011;59999;51.676;22.650;2023-05-08T08:29:28;5.32;;;2.00;;
72125;SDS011;59999;51.676;22.650;2023-05-08T08:31:55;6.88;;;2.30;;
72125;SDS011;59999;51.676;22.650;2023-05-08T08:34:21;6.03;;;1.92;;
72125;SDS011;59999;51.676;22.650;2023-05-08T08:36:48;4.97;;;1.80;;
72125;SDS011;59999;51.676;22.650;2023-05-08T08:39:14;6.13;;;2.15;;
72125;SDS011;59999;51.676;22.650;2023-05-08T08:41:40;6.20;;;1.88;;
72125;SDS011;59999;51.676;22.650;2023-05-08T08:44:05;5.40;;;2.00;;
72125;SDS011;59999;51.676;22.650;2023-05-08T08:46:32;5.53;;;2.03;;
72125;SDS011;59999;51.676;22.650;2023-05-08T08:49:01;6.05;;;2.25;;
72125;SDS011;59999;51.676;22.650;2023-05-08T08:51:31;5.38;;;1.83;;
72125;SDS011;59999;51.676;22.650;2023-05-08T08:54:15;5.78;;;2.17;;
72125;SDS011;59999;51.676;22.650;2023-05-08T08:56:45;5.97;;;2.10;;
72125;SDS011;59999;51.676;22.650;2023-05-08T08:59:14;7.07;;;2.13;;
72125;SDS011;59999;51.676;22.650;2023-05-08T09:01:43;6.43;;;2.40;;
72125;SDS011;59999;51.676;22.650;2023-05-08T09:04:10;5.18;;;1.80;;
72125;SDS011;59999;51.676;22.650;2023-05-08T09:06:36;5.13;;;1.70;;
72125;SDS011;59999;51.676;22.650;2023-05-08T09:09:03;4.67;;;1.60;;
72125;SDS011;59999;51.676;22.650;2023-05-08T09:11:30;4.95;;;1.90;;
72125;SDS011;59999;51.676;22.650;2023-05-08T09:13:56;6.28;;;1.98;;
72125;SDS011;59999;51.676;22.650;2023-05-08T09:16:23;5.60;;;1.70;;
72125;SDS011;59999;51.676;22.650;2023-05-08T09:18:49;8.30;;;1.70;;
72125;SDS011;59999;51.676;22.650;2023-05-08T09:21:16;4.68;;;1.60;;
72125;SDS011;59999;51.676;22.650;2023-05-08T09:26:27;5.38;;;1.80;;
72125;SDS011;59999;51.676;22.650;2023-05-08T09:29:09;7.50;;;2.10;;
72125;SDS011;59999;51.676;22.650;2023-05-08T09:31:38;5.20;;;1.67;;
72125;SDS011;59999;51.676;22.650;2023-05-08T09:34:09;4.20;;;1.40;;
72125;SDS011;59999;51.676;22.650;2023-05-08T09:36:36;5.35;;;1.70;;
72125;SDS011;59999;51.676;22.650;2023-05-08T09:39:08;6.50;;;1.77;;
72125;SDS011;59999;51.676;22.650;2023-05-08T09:41:38;5.28;;;1.67;;
72125;SDS011;59999;51.676;22.650;2023-05-08T09:44:05;5.00;;;1.73;;
72125;SDS011;59999;51.676;22.650;2023-05-08T09:46:33;5.70;;;1.60;;
72125;SDS011;59999;51.676;22.650;2023-05-08T09:49:00;5.22;;;1.80;;
72125;SDS011;59999;51.676;22.650;2023-05-08T09:51:28;5.43;;;1.88;;
72125;SDS011;59999;51.676;22.650;2023-05-08T09:53:56;5.43;;;1.67;;
72125;SDS011;59999;51.676;22.650;2023-05-08T09:56:36;5.63;;;1.80;;
72125;SDS011;59999;51.676;22.650;2023-05-08T09:59:04;8.75;;;1.85;;
72125;SDS011;59999;51.676;22.650;2023-05-08T10:01:46;4.32;;;1.60;;
72125;SDS011;59999;51.676;22.650;2023-05-08T10:04:13;4.97;;;1.80;;
72125;SDS011;59999;51.676;22.650;2023-05-08T10:06:40;7.30;;;1.60;;
72125;SDS011;59999;51.676;22.650;2023-05-08T10:09:12;4.80;;;1.50;;
72125;SDS011;59999;51.676;22.650;2023-05-08T10:11:40;5.05;;;1.55;;
72125;SDS011;59999;51.676;22.650;2023-05-08T10:14:16;4.68;;;1.40;;
72125;SDS011;59999;51.676;22.650;2023-05-08T10:16:43;4.63;;;1.60;;
72125;SDS011;59999;51.676;22.650;2023-05-08T10:19:24;4.97;;;1.80;;
72125;SDS011;59999;51.676;22.650;2023-05-08T10:21:53;6.32;;;1.73;;
72125;SDS011;59999;51.676;22.650;2023-05-08T10:24:31;7.10;;;1.45;;
72125;SDS011;59999;51.676;22.650;2023-05-08T10:27:09;4.97;;;1.60;;
72125;SDS011;59999;51.676;22.650;2023-05-08T10:30:02;5.32;;;1.63;;
72125;SDS011;59999;51.676;22.650;2023-05-08T10:32:30;6.83;;;2.07;;
72125;SDS011;59999;51.676;22.650;2023-05-08T10:35:06;5.07;;;1.80;;
72125;SDS011;59999;51.676;22.650;2023-05-08T10:37:34;4.63;;;1.67;;
72125;SDS011;59999;51.676;22.650;2023-05-08T10:40:02;5.05;;;1.70;;
72125;SDS011;59999;51.676;22.650;2023-05-08T10:42:29;4.78;;;1.60;;
72125;SDS011;59999;51.676;22.650;2023-05-08T10:44:57;4.20;;;1.53;;
72125;SDS011;59999;51.676;22.650;2023-05-08T10:55:24;5.00;;;1.80;;
72125;SDS011;59999;51.676;22.650;2023-05-08T10:58:03;5.43;;;2.10;;
72125;SDS011;59999;51.676;22.650;2023-05-08T11:03:26;5.60;;;1.60;;
72125;SDS011;59999;51.676;22.650;2023-05-08T11:05:53;4.68;;;1.70;;
72125;SDS011;59999;51.676;22.650;2023-05-08T11:08:24;5.93;;;1.90;;
72125;SDS011;59999;51.676;22.650;2023-05-08T11:13:27;5.13;;;1.88;;
72125;SDS011;59999;51.676;22.650;2023-05-08T11:15:55;5.00;;;1.80;;
72125;SDS011;59999;51.676;22.650;2023-05-08T11:18:21;5.53;;;1.77;;
72125;SDS011;59999;51.676;22.650;2023-05-08T11:20:55;5.35;;;1.70;;
72125;SDS011;59999;51.676;22.650;2023-05-08T11:23:39;5.17;;;1.93;;
72125;SDS011;59999;51.676;22.650;2023-05-08T11:26:05;5.90;;;2.15;;
72125;SDS011;59999;51.676;22.650;2023-05-08T11:28:39;5.30;;;1.70;;
72125;SDS011;59999;51.676;22.650;2023-05-08T11:31:47;11.55;;;2.47;;
72125;SDS011;59999;51.676;22.650;2023-05-08T11:39:42;5.38;;;1.77;;
72125;SDS011;59999;51.676;22.650;2023-05-08T11:45:05;5.93;;;2.20;;
72125;SDS011;59999;51.676;22.650;2023-05-08T11:50:02;5.22;;;2.00;;
72125;SDS011;59999;51.676;22.650;2023-05-08T11:52:32;4.55;;;1.77;;
72125;SDS011;59999;51.676;22.650;2023-05-08T11:55:02;5.28;;;2.42;;
72125;SDS011;59999;51.676;22.650;2023-05-08T11:57:29;5.80;;;2.08;;
72125;SDS011;59999;51.676;22.650;2023-05-08T11:59:57;5.07;;;1.80;;
72125;SDS011;59999;51.676;22.650;2023-05-08T12:05:01;4.72;;;1.80;;
72125;SDS011;59999;51.676;22.650;2023-05-08T12:07:27;5.32;;;1.83;;
72125;SDS011;59999;51.676;22.650;2023-05-08T12:09:54;5.57;;;1.92;;
72125;SDS011;59999;51.676;22.650;2023-05-08T12:12:20;5.43;;;1.90;;
72125;SDS011;59999;51.676;22.650;2023-05-08T12:14:49;5.50;;;1.83;;
72125;SDS011;59999;51.676;22.650;2023-05-08T12:17:16;6.75;;;1.83;;
72125;SDS011;59999;51.676;22.650;2023-05-08T12:19:43;4.35;;;1.63;;
72125;SDS011;59999;51.676;22.650;2023-05-08T12:22:09;6.07;;;2.30;;
72125;SDS011;59999;51.676;22.650;2023-05-08T12:24:35;5.38;;;1.90;;
72125;SDS011;59999;51.676;22.650;2023-05-08T12:27:03;5.22;;;2.00;;
72125;SDS011;59999;51.676;22.650;2023-05-08T12:29:29;5.63;;;1.80;;
72125;SDS011;59999;51.676;22.650;2023-05-08T12:32:00;4.90;;;2.00;;
72125;SDS011;59999;51.676;22.650;2023-05-08T12:34:26;6.33;;;2.00;;
72125;SDS011;59999;51.676;22.650;2023-05-08T12:37:02;5.65;;;2.10;;
72125;SDS011;59999;51.676;22.650;2023-05-08T12:39:33;5.30;;;1.70;;
72125;SDS011;59999;51.676;22.650;2023-05-08T12:42:00;5.25;;;1.90;;
72125;SDS011;59999;51.676;22.650;2023-05-08T12:44:26;4.77;;;1.73;;
72125;SDS011;59999;51.676;22.650;2023-05-08T12:46:55;6.13;;;1.90;;
72125;SDS011;59999;51.676;22.650;2023-05-08T12:49:28;4.50;;;1.60;;
72125;SDS011;59999;51.676;22.650;2023-05-08T12:52:08;4.25;;;1.55;;
72125;SDS011;59999;51.676;22.650;2023-05-08T12:54:47;6.65;;;1.98;;
72125;SDS011;59999;51.676;22.650;2023-05-08T12:57:14;5.57;;;1.60;;
72125;SDS011;59999;51.676;22.650;2023-05-08T12:59:42;8.32;;;1.65;;
72125;SDS011;59999;51.676;22.650;2023-05-08T13:02:15;6.20;;;1.90;;
72125;SDS011;59999;51.676;22.650;2023-05-08T13:04:43;4.82;;;1.80;;
72125;SDS011;59999;51.676;22.650;2023-05-08T13:07:09;6.05;;;1.75;;
72125;SDS011;59999;51.676;22.650;2023-05-08T13:09:36;6.20;;;1.83;;
72125;SDS011;59999;51.676;22.650;2023-05-08T13:12:02;6.10;;;2.33;;
72125;SDS011;59999;51.676;22.650;2023-05-08T13:14:30;6.25;;;2.33;;
72125;SDS011;59999;51.676;22.650;2023-05-08T13:16:56;7.22;;;2.05;;
72125;SDS011;59999;51.676;22.650;2023-05-08T13:19:22;5.03;;;1.80;;
72125;SDS011;59999;51.676;22.650;2023-05-08T13:21:47;4.60;;;1.73;;
72125;SDS011;59999;51.676;22.650;2023-05-08T13:24:14;4.07;;;1.63;;
72125;SDS011;59999;51.676;22.650;2023-05-08T13:26:40;6.27;;;2.10;;
72125;SDS011;59999;51.676;22.650;2023-05-08T13:29:06;6.45;;;2.08;;
72125;SDS011;59999;51.676;22.650;2023-05-08T13:31:31;5.18;;;1.70;;
72125;SDS011;59999;51.676;22.650;2023-05-08T13:33:57;5.80;;;2.00;;
72125;SDS011;59999;51.676;22.650;2023-05-08T13:36:23;4.83;;;1.83;;
72125;SDS011;59999;51.676;22.650;2023-05-08T13:38:49;4.60;;;1.83;;
72125;SDS011;59999;51.676;22.650;2023-05-08T13:41:21;5.13;;;1.92;;
72125;SDS011;59999;51.676;22.650;2023-05-08T13:43:47;5.97;;;2.10;;
72125;SDS011;59999;51.676;22.650;2023-05-08T13:46:13;5.27;;;2.10;;
72125;SDS011;59999;51.676;22.650;2023-05-08T13:48:39;4.65;;;1.85;;
72125;SDS011;59999;51.676;22.650;2023-05-08T13:51:05;5.87;;;1.70;;
72125;SDS011;59999;51.676;22.650;2023-05-08T13:53:32;5.93;;;2.00;;
72125;SDS011;59999;51.676;22.650;2023-05-08T13:55:57;4.28;;;1.73;;
72125;SDS011;59999;51.676;22.650;2023-05-08T13:58:26;6.88;;;2.28;;
72125;SDS011;59999;51.676;22.650;2023-05-08T14:00:52;6.10;;;1.87;;
72125;SDS011;59999;51.676;22.650;2023-05-08T14:03:18;8.85;;;1.92;;
72125;SDS011;59999;51.676;22.650;2023-05-08T14:05:44;6.55;;;1.60;;
72125;SDS011;59999;51.676;22.650;2023-05-08T14:08:10;4.50;;;1.90;;
72125;SDS011;59999;51.676;22.650;2023-05-08T14:10:36;4.90;;;2.00;;
72125;SDS011;59999;51.676;22.650;2023-05-08T14:13:03;4.88;;;1.92;;
72125;SDS011;59999;51.676;22.650;2023-05-08T14:15:29;4.50;;;1.88;;
72125;SDS011;59999;51.676;22.650;2023-05-08T14:17:55;4.72;;;1.83;;
72125;SDS011;59999;51.676;22.650;2023-05-08T14:20:20;4.37;;;1.67;;
72125;SDS011;59999;51.676;22.650;2023-05-08T14:22:47;5.32;;;1.80;;
72125;SDS011;59999;51.676;22.650;2023-05-08T14:25:12;6.00;;;2.03;;
72125;SDS011;59999;51.676;22.650;2023-05-08T14:27:38;5.15;;;2.17;;
72125;SDS011;59999;51.676;22.650;2023-05-08T14:30:04;5.18;;;1.80;;
72125;SDS011;59999;51.676;22.650;2023-05-08T14:32:31;4.38;;;1.83;;
72125;SDS011;59999;51.676;22.650;2023-05-08T14:34:57;5.37;;;2.03;;
72125;SDS011;59999;51.676;22.650;2023-05-08T14:37:23;5.35;;;2.38;;
72125;SDS011;59999;51.676;22.650;2023-05-08T14:39:49;7.03;;;1.90;;
72125;SDS011;59999;51.676;22.650;2023-05-08T14:42:18;4.67;;;1.90;;
72125;SDS011;59999;51.676;22.650;2023-05-08T14:44:44;4.95;;;1.90;;
72125;SDS011;59999;51.676;22.650;2023-05-08T14:47:10;4.93;;;2.00;;
72125;SDS011;59999;51.676;22.650;2023-05-08T14:49:36;5.13;;;1.95;;
72125;SDS011;59999;51.676;22.650;2023-05-08T14:52:02;5.37;;;1.97;;
72125;SDS011;59999;51.676;22.650;2023-05-08T14:54:28;5.95;;;1.75;;
72125;SDS011;59999;51.676;22.650;2023-05-08T14:56:54;5.13;;;1.85;;
72125;SDS011;59999;51.676;22.650;2023-05-08T14:59:20;5.68;;;1.98;;
72125;SDS011;59999;51.676;22.650;2023-05-08T15:01:46;6.40;;;2.10;;
72125;SDS011;59999;51.676;22.650;2023-05-08T15:04:12;5.25;;;2.30;;
72125;SDS011;59999;51.676;22.650;2023-05-08T15:06:38;6.43;;;2.78;;
72125;SDS011;59999;51.676;22.650;2023-05-08T15:09:05;6.23;;;2.70;;
72125;SDS011;59999;51.676;22.650;2023-05-08T15:11:32;5.05;;;2.30;;
72125;SDS011;59999;51.676;22.650;2023-05-08T15:13:58;5.68;;;2.00;;
72125;SDS011;59999;51.676;22.650;2023-05-08T15:16:26;5.50;;;2.15;;
72125;SDS011;59999;51.676;22.650;2023-05-08T15:18:52;5.83;;;2.63;;